XH533 WSAP-YMAV
Flight info
| Callsign | XH533 |
|---|---|
| Flight time | 6h 18m |
| Altitude | 39000 |
| Route | PLA DCT BTM DCT PKP DCT SLO DCT EDN DCT AV |
| Aircraft | VULC/M-SDFIHRWY/S |
Departure
| Time | 2026-05-06 03:22 |
|---|---|
| Airport | Paya Lebar Air Base (WSAP) |
Arrival
| Time | 2026-05-06 09:40 |
|---|---|
| Airport | Melbourne Avalon International Airport (YMAV) |
| Time | Latitude | Longitude | Altitude | Speed | Heading |
|---|---|---|---|---|---|
| 2026-05-06 02:23 | 1.35738 | 103.90499 | 65 ft | 0 kts | 110° |
| 2026-05-06 03:10 | 1.35733 | 103.90512 | 57 ft | 6 kts | 109° |
| 2026-05-06 03:10 | 1.35722 | 103.90555 | 61 ft | 11 kts | 103° |
| 2026-05-06 03:11 | 1.35718 | 103.90570 | 57 ft | 13 kts | 105° |
| 2026-05-06 03:11 | 1.35681 | 103.90601 | 65 ft | 8 kts | 186° |
| 2026-05-06 03:11 | 1.35598 | 103.90576 | 57 ft | 17 kts | 199° |
| 2026-05-06 03:12 | 1.35466 | 103.90516 | 60 ft | 25 kts | 206° |
| 2026-05-06 03:12 | 1.35284 | 103.90440 | 62 ft | 31 kts | 202° |
| 2026-05-06 03:12 | 1.35080 | 103.90353 | 55 ft | 29 kts | 202° |
| 2026-05-06 03:12 | 1.34880 | 103.90271 | 54 ft | 33 kts | 202° |
| 2026-05-06 03:13 | 1.34667 | 103.90179 | 54 ft | 30 kts | 206° |
| 2026-05-06 03:13 | 1.34532 | 103.90144 | 57 ft | 8 kts | 145° |
| 2026-05-06 03:13 | 1.34533 | 103.90170 | 57 ft | 4 kts | 75° |
| 2026-05-06 03:13 | 1.34532 | 103.90194 | 57 ft | 2 kts | 117° |
| 2026-05-06 03:14 | 1.34530 | 103.90197 | 57 ft | 0 kts | 128° |
| 2026-05-06 03:16 | 1.34528 | 103.90200 | 57 ft | 1 kts | 127° |
| 2026-05-06 03:16 | 1.34526 | 103.90202 | 57 ft | 0 kts | 127° |
| 2026-05-06 03:17 | 1.34525 | 103.90204 | 56 ft | 0 kts | 120° |
| 2026-05-06 03:19 | 1.34518 | 103.90225 | 52 ft | 6 kts | 105° |
| 2026-05-06 03:19 | 1.34510 | 103.90281 | 50 ft | 9 kts | 64° |
| 2026-05-06 03:20 | 1.34637 | 103.90363 | 54 ft | 9 kts | 32° |
| 2026-05-06 03:20 | 1.34654 | 103.90371 | 50 ft | 0 kts | 23° |
| 2026-05-06 03:21 | 1.34670 | 103.90378 | 55 ft | 14 kts | 23° |
| 2026-05-06 03:21 | 1.35018 | 103.90526 | 56 ft | 96 kts | 23° |
| 2026-05-06 03:21 | 1.35857 | 103.90880 | 60 ft | 167 kts | 23° |
| 2026-05-06 03:21 | 1.37095 | 103.91398 | 142 ft | 218 kts | 22° |
| 2026-05-06 03:22 | 1.38481 | 103.91968 | 1177 ft | 196 kts | 24° |
| 2026-05-06 03:22 | 1.39709 | 103.92394 | 2318 ft | 196 kts | 4° |
| 2026-05-06 03:22 | 1.41143 | 103.91995 | 2086 ft | 230 kts | 324° |
| 2026-05-06 03:22 | 1.42169 | 103.90838 | 2038 ft | 247 kts | 295° |
| 2026-05-06 03:23 | 1.42509 | 103.89144 | 2312 ft | 254 kts | 264° |
| 2026-05-06 03:23 | 1.41888 | 103.87529 | 2783 ft | 251 kts | 232° |
| 2026-05-06 03:23 | 1.40539 | 103.86438 | 3058 ft | 253 kts | 207° |
| 2026-05-06 03:23 | 1.38892 | 103.85884 | 3392 ft | 243 kts | 188° |
| 2026-05-06 03:24 | 1.37312 | 103.85954 | 3403 ft | 221 kts | 157° |
| 2026-05-06 03:24 | 1.36360 | 103.87065 | 3038 ft | 222 kts | 105° |
| 2026-05-06 03:24 | 1.36094 | 103.88609 | 2726 ft | 226 kts | 99° |
| 2026-05-06 03:24 | 1.35876 | 103.90164 | 2468 ft | 226 kts | 98° |
| 2026-05-06 03:25 | 1.35688 | 103.91741 | 2402 ft | 230 kts | 97° |
| 2026-05-06 03:25 | 1.35544 | 103.93111 | 2409 ft | 230 kts | 96° |
| 2026-05-06 03:25 | 1.35389 | 103.94774 | 2398 ft | 232 kts | 96° |
| 2026-05-06 03:25 | 1.35194 | 103.96388 | 2331 ft | 238 kts | 100° |
| 2026-05-06 03:26 | 1.34874 | 103.98085 | 2341 ft | 258 kts | 102° |
| 2026-05-06 03:26 | 1.34538 | 103.99841 | 2743 ft | 259 kts | 102° |
| 2026-05-06 03:26 | 1.34215 | 104.01538 | 4020 ft | 236 kts | 102° |
| 2026-05-06 03:26 | 1.33633 | 104.03042 | 5034 ft | 243 kts | 124° |
| 2026-05-06 03:27 | 1.32421 | 104.04387 | 5436 ft | 268 kts | 135° |
| 2026-05-06 03:27 | 1.31072 | 104.05716 | 6196 ft | 277 kts | 137° |
| 2026-05-06 03:27 | 1.29648 | 104.07019 | 6950 ft | 284 kts | 141° |
| 2026-05-06 03:27 | 1.27996 | 104.08190 | 7739 ft | 289 kts | 148° |
| 2026-05-06 03:28 | 1.26261 | 104.09174 | 8729 ft | 279 kts | 152° |
| 2026-05-06 03:28 | 1.24600 | 104.09980 | 9119 ft | 269 kts | 155° |
| 2026-05-06 03:28 | 1.22875 | 104.10721 | 9360 ft | 272 kts | 158° |
| 2026-05-06 03:28 | 1.21071 | 104.11430 | 10095 ft | 279 kts | 158° |
| 2026-05-06 03:29 | 1.19314 | 104.12097 | 11432 ft | 259 kts | 158° |
| 2026-05-06 03:29 | 1.17673 | 104.12696 | 12727 ft | 253 kts | 159° |
| 2026-05-06 03:29 | 1.15944 | 104.13289 | 13247 ft | 274 kts | 162° |
| 2026-05-06 03:29 | 1.14019 | 104.13327 | 13693 ft | 300 kts | 192° |
| 2026-05-06 03:30 | 1.11965 | 104.12781 | 14328 ft | 312 kts | 185° |
| 2026-05-06 03:30 | 1.09828 | 104.13122 | 14902 ft | 319 kts | 153° |
| 2026-05-06 03:30 | 1.08011 | 104.14405 | 15718 ft | 321 kts | 139° |
| 2026-05-06 03:30 | 1.06298 | 104.15857 | 16634 ft | 325 kts | 137° |
| 2026-05-06 03:31 | 1.04596 | 104.17365 | 17556 ft | 329 kts | 136° |
| 2026-05-06 03:31 | 1.02889 | 104.18908 | 18440 ft | 332 kts | 136° |
| 2026-05-06 03:31 | 1.01172 | 104.20471 | 19231 ft | 335 kts | 136° |
| 2026-05-06 03:31 | 0.99442 | 104.22048 | 20054 ft | 338 kts | 136° |
| 2026-05-06 03:32 | 0.97698 | 104.23634 | 20883 ft | 340 kts | 136° |
| 2026-05-06 03:32 | 0.95942 | 104.25226 | 21725 ft | 342 kts | 136° |
| 2026-05-06 03:32 | 0.94175 | 104.26825 | 22581 ft | 343 kts | 136° |
| 2026-05-06 03:32 | 0.92400 | 104.28424 | 23455 ft | 344 kts | 136° |
| 2026-05-06 03:33 | 0.90621 | 104.30038 | 24083 ft | 349 kts | 135° |
| 2026-05-06 03:33 | 0.88802 | 104.31698 | 24546 ft | 360 kts | 136° |
| 2026-05-06 03:33 | 0.86697 | 104.33135 | 24926 ft | 374 kts | 151° |
| 2026-05-06 03:33 | 0.84399 | 104.34418 | 25361 ft | 383 kts | 147° |
| 2026-05-06 03:34 | 0.82165 | 104.35807 | 26088 ft | 380 kts | 146° |
| 2026-05-06 03:34 | 0.79931 | 104.37229 | 26853 ft | 382 kts | 145° |
| 2026-05-06 03:34 | 0.77687 | 104.38673 | 27516 ft | 386 kts | 145° |
| 2026-05-06 03:34 | 0.75408 | 104.40145 | 28010 ft | 395 kts | 145° |
| 2026-05-06 03:35 | 0.73078 | 104.41654 | 28480 ft | 403 kts | 145° |
| 2026-05-06 03:35 | 0.70703 | 104.43192 | 28988 ft | 410 kts | 145° |
| 2026-05-06 03:35 | 0.68295 | 104.44753 | 29526 ft | 417 kts | 145° |
| 2026-05-06 03:35 | 0.65845 | 104.46341 | 30068 ft | 422 kts | 145° |
| 2026-05-06 03:36 | 0.63368 | 104.47947 | 30550 ft | 427 kts | 146° |
| 2026-05-06 03:36 | 0.60866 | 104.49573 | 31053 ft | 431 kts | 146° |
| 2026-05-06 03:36 | 0.58337 | 104.51221 | 31564 ft | 436 kts | 146° |
| 2026-05-06 03:36 | 0.55760 | 104.52841 | 32081 ft | 440 kts | 148° |
| 2026-05-06 03:37 | 0.53093 | 104.54371 | 32599 ft | 444 kts | 151° |
| 2026-05-06 03:37 | 0.50314 | 104.55743 | 33133 ft | 448 kts | 153° |
| 2026-05-06 03:37 | 0.47524 | 104.57156 | 33687 ft | 451 kts | 152° |
| 2026-05-06 03:37 | 0.44736 | 104.58598 | 34200 ft | 453 kts | 152° |
| 2026-05-06 03:38 | 0.41929 | 104.60061 | 34682 ft | 457 kts | 152° |
| 2026-05-06 03:38 | 0.39093 | 104.61543 | 34950 ft | 466 kts | 152° |
| 2026-05-06 03:38 | 0.36188 | 104.63064 | 35199 ft | 474 kts | 152° |
| 2026-05-06 03:38 | 0.33245 | 104.64607 | 35492 ft | 482 kts | 152° |
| 2026-05-06 03:39 | 0.30261 | 104.66172 | 35798 ft | 488 kts | 152° |
| 2026-05-06 03:39 | 0.27240 | 104.67760 | 36170 ft | 493 kts | 152° |
| 2026-05-06 03:39 | 0.24199 | 104.69367 | 36632 ft | 495 kts | 151° |
| 2026-05-06 03:39 | 0.21169 | 104.70981 | 37144 ft | 497 kts | 151° |
| 2026-05-06 03:40 | 0.18108 | 104.72624 | 37662 ft | 498 kts | 151° |
| 2026-05-06 03:40 | 0.15050 | 104.74282 | 38107 ft | 502 kts | 151° |
| 2026-05-06 03:40 | 0.11975 | 104.75966 | 38431 ft | 507 kts | 151° |
| 2026-05-06 03:40 | 0.08870 | 104.77688 | 38673 ft | 513 kts | 150° |
| 2026-05-06 03:41 | 0.05796 | 104.79415 | 38881 ft | 518 kts | 150° |
| 2026-05-06 03:41 | 0.02650 | 104.81207 | 39107 ft | 521 kts | 149° |
| 2026-05-06 03:41 | -0.00491 | 104.83021 | 39379 ft | 523 kts | 149° |
| 2026-05-06 03:41 | -0.03633 | 104.84863 | 39682 ft | 524 kts | 149° |
| 2026-05-06 03:42 | -0.06766 | 104.86728 | 39969 ft | 525 kts | 148° |
| 2026-05-06 03:42 | -0.09894 | 104.88621 | 40207 ft | 527 kts | 148° |
| 2026-05-06 03:42 | -0.13023 | 104.90546 | 40360 ft | 530 kts | 147° |
| 2026-05-06 03:42 | -0.16155 | 104.92504 | 40452 ft | 533 kts | 147° |
| 2026-05-06 03:43 | -0.22435 | 104.96535 | 40594 ft | 539 kts | 146° |
| 2026-05-06 03:43 | -0.25565 | 104.98600 | 40709 ft | 540 kts | 146° |
| 2026-05-06 03:43 | -0.28684 | 105.00696 | 40849 ft | 540 kts | 145° |
| 2026-05-06 03:44 | -0.31781 | 105.02818 | 40986 ft | 540 kts | 144° |
| 2026-05-06 03:44 | -0.34861 | 105.04970 | 41090 ft | 541 kts | 144° |
| 2026-05-06 03:44 | -0.40991 | 105.09382 | 41177 ft | 544 kts | 143° |
| 2026-05-06 03:45 | -0.47065 | 105.13929 | 41235 ft | 546 kts | 141° |
| 2026-05-06 03:45 | -0.53060 | 105.18601 | 41367 ft | 546 kts | 140° |
| 2026-05-06 03:46 | -0.57967 | 105.22573 | 41474 ft | 546 kts | 139° |
| 2026-05-06 03:46 | -0.63783 | 105.27462 | 41521 ft | 547 kts | 138° |
| 2026-05-06 03:47 | -0.69514 | 105.32483 | 41543 ft | 548 kts | 137° |
| 2026-05-06 03:47 | -0.75140 | 105.37617 | 41610 ft | 548 kts | 136° |
| 2026-05-06 03:48 | -0.80658 | 105.42857 | 41673 ft | 547 kts | 135° |
| 2026-05-06 03:48 | -0.86078 | 105.48214 | 41664 ft | 548 kts | 134° |
| 2026-05-06 03:49 | -0.91407 | 105.53683 | 41410 ft | 552 kts | 133° |
| 2026-05-06 03:49 | -0.94068 | 105.56465 | 41107 ft | 555 kts | 133° |
| 2026-05-06 03:49 | -0.96770 | 105.59203 | 41180 ft | 551 kts | 138° |
| 2026-05-06 03:50 | -0.99956 | 105.61295 | 41419 ft | 547 kts | 152° |
| 2026-05-06 03:50 | -1.03348 | 105.62955 | 41850 ft | 540 kts | 154° |
| 2026-05-06 03:50 | -1.06746 | 105.64521 | 42230 ft | 535 kts | 155° |
| 2026-05-06 03:50 | -1.10127 | 105.66034 | 42563 ft | 532 kts | 155° |
| 2026-05-06 03:51 | -1.13508 | 105.67526 | 42864 ft | 529 kts | 155° |
| 2026-05-06 03:51 | -1.16866 | 105.69018 | 43081 ft | 529 kts | 155° |
| 2026-05-06 03:51 | -1.23622 | 105.71972 | 43262 ft | 531 kts | 155° |
| 2026-05-06 03:52 | -1.30374 | 105.74901 | 43430 ft | 529 kts | 155° |
| 2026-05-06 03:52 | -1.37067 | 105.77803 | 43601 ft | 531 kts | 155° |
| 2026-05-06 03:53 | -1.43883 | 105.80758 | 43776 ft | 532 kts | 155° |
| 2026-05-06 03:53 | -1.50668 | 105.83702 | 43942 ft | 532 kts | 155° |
| 2026-05-06 03:54 | -1.57464 | 105.86652 | 44102 ft | 532 kts | 155° |
| 2026-05-06 03:54 | -1.64260 | 105.89603 | 44256 ft | 532 kts | 155° |
| 2026-05-06 03:55 | -1.71055 | 105.92552 | 44393 ft | 532 kts | 155° |
| 2026-05-06 03:55 | -1.77846 | 105.95505 | 44515 ft | 532 kts | 155° |
| 2026-05-06 03:56 | -1.84629 | 105.98461 | 44625 ft | 532 kts | 155° |
| 2026-05-06 03:56 | -1.91416 | 106.01425 | 44709 ft | 532 kts | 155° |
| 2026-05-06 03:57 | -1.98197 | 106.04390 | 44788 ft | 532 kts | 155° |
| 2026-05-06 03:57 | -2.04910 | 106.07328 | 44858 ft | 532 kts | 155° |
| 2026-05-06 03:58 | -2.11527 | 106.10601 | 44867 ft | 531 kts | 144° |
| 2026-05-06 03:58 | -2.14527 | 106.12726 | 45010 ft | 528 kts | 143° |
| 2026-05-06 03:58 | -2.17470 | 106.14913 | 45141 ft | 526 kts | 142° |
| 2026-05-06 03:59 | -2.20340 | 106.17084 | 45264 ft | 524 kts | 142° |
| 2026-05-06 03:59 | -2.23210 | 106.19275 | 45353 ft | 523 kts | 141° |
| 2026-05-06 03:59 | -2.28973 | 106.23703 | 45530 ft | 522 kts | 141° |
| 2026-05-06 04:00 | -2.34721 | 106.28137 | 45682 ft | 521 kts | 141° |
| 2026-05-06 04:00 | -2.40446 | 106.32566 | 45815 ft | 521 kts | 141° |
| 2026-05-06 04:01 | -2.46174 | 106.37007 | 45937 ft | 520 kts | 141° |
| 2026-05-06 04:01 | -2.51893 | 106.41444 | 46043 ft | 520 kts | 141° |
| 2026-05-06 04:02 | -2.57615 | 106.45886 | 46145 ft | 521 kts | 141° |
| 2026-05-06 04:02 | -2.62330 | 106.50258 | 46179 ft | 521 kts | 133° |
| 2026-05-06 04:03 | -2.66803 | 106.54674 | 46244 ft | 522 kts | 139° |
| 2026-05-06 04:03 | -2.72424 | 106.59283 | 46273 ft | 523 kts | 141° |
| 2026-05-06 04:04 | -2.78084 | 106.63860 | 46345 ft | 523 kts | 140° |
| 2026-05-06 04:04 | -2.83724 | 106.68430 | 46718 ft | 515 kts | 140° |
| 2026-05-06 04:05 | -2.86489 | 106.70675 | 47008 ft | 511 kts | 141° |
| 2026-05-06 04:05 | -2.89243 | 106.72912 | 47238 ft | 507 kts | 140° |
| 2026-05-06 04:05 | -2.91984 | 106.75125 | 47439 ft | 505 kts | 140° |
| 2026-05-06 04:05 | -2.94704 | 106.77337 | 47616 ft | 503 kts | 140° |
| 2026-05-06 04:06 | -2.97419 | 106.79531 | 47777 ft | 501 kts | 140° |
| 2026-05-06 04:06 | -3.00121 | 106.81723 | 47928 ft | 500 kts | 140° |
| 2026-05-06 04:06 | -3.05549 | 106.86120 | 47958 ft | 504 kts | 140° |
| 2026-05-06 04:07 | -3.11006 | 106.90542 | 48005 ft | 506 kts | 140° |
| 2026-05-06 04:07 | -3.16450 | 106.94956 | 48067 ft | 508 kts | 140° |
| 2026-05-06 04:08 | -3.21950 | 106.99414 | 48144 ft | 509 kts | 140° |
| 2026-05-06 04:08 | -3.27454 | 107.03872 | 48214 ft | 510 kts | 140° |
| 2026-05-06 04:09 | -3.32957 | 107.08333 | 48295 ft | 510 kts | 140° |
| 2026-05-06 04:09 | -3.38468 | 107.12802 | 48355 ft | 510 kts | 140° |
| 2026-05-06 04:10 | -3.43984 | 107.17278 | 48430 ft | 510 kts | 140° |
| 2026-05-06 04:10 | -3.49497 | 107.21748 | 48495 ft | 510 kts | 140° |
| 2026-05-06 04:11 | -3.55019 | 107.26225 | 48554 ft | 510 kts | 140° |
| 2026-05-06 04:11 | -3.60533 | 107.30697 | 48605 ft | 510 kts | 140° |
| 2026-05-06 04:12 | -3.66049 | 107.35173 | 48657 ft | 510 kts | 140° |
| 2026-05-06 04:12 | -3.71561 | 107.39649 | 48695 ft | 510 kts | 140° |
| 2026-05-06 04:13 | -3.77077 | 107.44127 | 48736 ft | 510 kts | 140° |
| 2026-05-06 04:13 | -3.82587 | 107.48597 | 48780 ft | 510 kts | 140° |
| 2026-05-06 04:14 | -3.88098 | 107.53063 | 48821 ft | 510 kts | 140° |
| 2026-05-06 04:14 | -3.93642 | 107.57430 | 48859 ft | 510 kts | 141° |
| 2026-05-06 04:15 | -3.99292 | 107.61733 | 48888 ft | 511 kts | 142° |
| 2026-05-06 04:15 | -4.05017 | 107.65950 | 48878 ft | 512 kts | 143° |
| 2026-05-06 04:16 | -4.10826 | 107.70085 | 48875 ft | 512 kts | 144° |
| 2026-05-06 04:16 | -4.16704 | 107.74126 | 48882 ft | 513 kts | 145° |
| 2026-05-06 04:17 | -4.22638 | 107.78109 | 48869 ft | 513 kts | 143° |
| 2026-05-06 04:17 | -4.28268 | 107.82498 | 48871 ft | 513 kts | 140° |
| 2026-05-06 04:18 | -4.33806 | 107.87004 | 48875 ft | 513 kts | 140° |
| 2026-05-06 04:18 | -4.39434 | 107.91396 | 48874 ft | 513 kts | 141° |
| 2026-05-06 04:19 | -4.45095 | 107.95745 | 48870 ft | 514 kts | 141° |
| 2026-05-06 04:19 | -4.50769 | 108.00091 | 48877 ft | 514 kts | 141° |
| 2026-05-06 04:20 | -4.56457 | 108.04448 | 48872 ft | 514 kts | 141° |
| 2026-05-06 04:20 | -4.62137 | 108.08801 | 48876 ft | 514 kts | 141° |
| 2026-05-06 04:21 | -4.67816 | 108.13157 | 48870 ft | 514 kts | 141° |
| 2026-05-06 04:21 | -4.73493 | 108.17522 | 48872 ft | 514 kts | 141° |
| 2026-05-06 04:22 | -4.79169 | 108.21894 | 48872 ft | 514 kts | 141° |
| 2026-05-06 04:23 | -4.87679 | 108.28455 | 48875 ft | 515 kts | 141° |
| 2026-05-06 04:23 | -4.93354 | 108.32834 | 48874 ft | 515 kts | 141° |
| 2026-05-06 04:24 | -4.98985 | 108.37186 | 48871 ft | 515 kts | 141° |
| 2026-05-06 04:24 | -5.04561 | 108.41765 | 48867 ft | 514 kts | 138° |
| 2026-05-06 04:25 | -5.09899 | 108.46469 | 48860 ft | 514 kts | 138° |
| 2026-05-06 04:25 | -5.15231 | 108.51255 | 48871 ft | 514 kts | 137° |
| 2026-05-06 04:26 | -5.20550 | 108.56052 | 48874 ft | 515 kts | 137° |
| 2026-05-06 04:26 | -5.25871 | 108.60867 | 48874 ft | 515 kts | 137° |
| 2026-05-06 04:27 | -5.31181 | 108.65675 | 48875 ft | 514 kts | 137° |
| 2026-05-06 04:27 | -5.36494 | 108.70489 | 48875 ft | 514 kts | 137° |
| 2026-05-06 04:28 | -5.41803 | 108.75304 | 48871 ft | 514 kts | 137° |
| 2026-05-06 04:28 | -5.47103 | 108.80114 | 48877 ft | 514 kts | 137° |
| 2026-05-06 04:29 | -5.52411 | 108.84933 | 48874 ft | 514 kts | 137° |
| 2026-05-06 04:29 | -5.57713 | 108.89747 | 48873 ft | 514 kts | 137° |
| 2026-05-06 04:30 | -5.62976 | 108.94526 | 48873 ft | 514 kts | 137° |
| 2026-05-06 04:30 | -5.68277 | 108.99337 | 48876 ft | 514 kts | 137° |
| 2026-05-06 04:31 | -5.73576 | 109.04146 | 48874 ft | 514 kts | 137° |
| 2026-05-06 04:31 | -5.78877 | 109.08957 | 48875 ft | 514 kts | 137° |
| 2026-05-06 04:32 | -5.84180 | 109.13768 | 48874 ft | 514 kts | 137° |
| 2026-05-06 04:32 | -5.89481 | 109.18578 | 48870 ft | 514 kts | 137° |
| 2026-05-06 04:33 | -5.94786 | 109.23391 | 48873 ft | 514 kts | 137° |
| 2026-05-06 04:33 | -6.00100 | 109.28213 | 48872 ft | 514 kts | 137° |
| 2026-05-06 04:34 | -6.05378 | 109.33022 | 48871 ft | 514 kts | 137° |
| 2026-05-06 04:34 | -6.10621 | 109.37914 | 48868 ft | 515 kts | 137° |
| 2026-05-06 04:35 | -6.15850 | 109.42832 | 48867 ft | 515 kts | 136° |
| 2026-05-06 04:35 | -6.21071 | 109.47757 | 48868 ft | 515 kts | 136° |
| 2026-05-06 04:36 | -6.26288 | 109.52686 | 48867 ft | 515 kts | 136° |
| 2026-05-06 04:36 | -6.30373 | 109.57012 | 48855 ft | 513 kts | 123° |
| 2026-05-06 04:37 | -6.35036 | 109.63909 | 48873 ft | 513 kts | 125° |
| 2026-05-06 04:37 | -6.38784 | 109.68577 | 48859 ft | 513 kts | 131° |
| 2026-05-06 04:38 | -6.43113 | 109.74264 | 48873 ft | 512 kts | 129° |
| 2026-05-06 04:38 | -6.47830 | 109.79617 | 48867 ft | 513 kts | 135° |
| 2026-05-06 04:39 | -6.52993 | 109.84563 | 48868 ft | 513 kts | 137° |
| 2026-05-06 04:39 | -6.58218 | 109.89425 | 48865 ft | 514 kts | 137° |
| 2026-05-06 04:40 | -6.63487 | 109.94300 | 48858 ft | 514 kts | 137° |
| 2026-05-06 04:40 | -6.68757 | 109.99170 | 48859 ft | 515 kts | 137° |
| 2026-05-06 04:41 | -6.74017 | 110.04034 | 48856 ft | 515 kts | 137° |
| 2026-05-06 04:41 | -6.79311 | 110.08925 | 48857 ft | 515 kts | 137° |
| 2026-05-06 04:42 | -6.84594 | 110.13806 | 48860 ft | 516 kts | 137° |
| 2026-05-06 04:42 | -6.89879 | 110.18686 | 48860 ft | 516 kts | 137° |
| 2026-05-06 04:43 | -6.95171 | 110.23570 | 48857 ft | 516 kts | 137° |
| 2026-05-06 04:43 | -7.00461 | 110.28453 | 48863 ft | 516 kts | 137° |
| 2026-05-06 04:44 | -7.05725 | 110.33309 | 48860 ft | 517 kts | 137° |
| 2026-05-06 04:44 | -7.11019 | 110.38191 | 48863 ft | 517 kts | 137° |
| 2026-05-06 04:45 | -7.16325 | 110.43084 | 48869 ft | 517 kts | 137° |
| 2026-05-06 04:45 | -7.21498 | 110.47853 | 48872 ft | 517 kts | 137° |
| 2026-05-06 04:46 | -7.26806 | 110.52745 | 48880 ft | 517 kts | 137° |
| 2026-05-06 04:46 | -7.32109 | 110.57628 | 48882 ft | 517 kts | 137° |
| 2026-05-06 04:47 | -7.37422 | 110.62523 | 48884 ft | 517 kts | 137° |
| 2026-05-06 04:47 | -7.42727 | 110.67407 | 48878 ft | 516 kts | 137° |
| 2026-05-06 04:48 | -7.48182 | 110.72102 | 48878 ft | 516 kts | 141° |
| 2026-05-06 04:48 | -7.53775 | 110.76640 | 48881 ft | 516 kts | 141° |
| 2026-05-06 04:49 | -7.59388 | 110.81152 | 48882 ft | 516 kts | 142° |
| 2026-05-06 04:49 | -7.64984 | 110.85643 | 48877 ft | 516 kts | 142° |
| 2026-05-06 04:50 | -7.70610 | 110.90160 | 48880 ft | 516 kts | 142° |
| 2026-05-06 04:50 | -7.76220 | 110.94672 | 48880 ft | 516 kts | 142° |
| 2026-05-06 04:51 | -7.81830 | 110.99184 | 48883 ft | 516 kts | 142° |
| 2026-05-06 04:51 | -7.87441 | 111.03699 | 48888 ft | 516 kts | 142° |
| 2026-05-06 04:52 | -7.93053 | 111.08220 | 48889 ft | 516 kts | 142° |
| 2026-05-06 04:52 | -7.98658 | 111.12747 | 48895 ft | 516 kts | 142° |
| 2026-05-06 04:53 | -8.04259 | 111.17287 | 48886 ft | 517 kts | 142° |
| 2026-05-06 04:53 | -8.09818 | 111.21815 | 48887 ft | 517 kts | 142° |
| 2026-05-06 04:54 | -8.15403 | 111.26387 | 48890 ft | 517 kts | 142° |
| 2026-05-06 04:54 | -8.21001 | 111.30990 | 48893 ft | 517 kts | 142° |
| 2026-05-06 04:55 | -8.26531 | 111.35563 | 48897 ft | 517 kts | 142° |
| 2026-05-06 04:55 | -8.32091 | 111.40177 | 48879 ft | 517 kts | 142° |
| 2026-05-06 04:56 | -8.37646 | 111.44804 | 48882 ft | 517 kts | 141° |
| 2026-05-06 04:56 | -8.43186 | 111.49433 | 48882 ft | 517 kts | 142° |
| 2026-05-06 04:57 | -8.48717 | 111.54067 | 48876 ft | 517 kts | 142° |
| 2026-05-06 04:57 | -8.54246 | 111.58707 | 48878 ft | 516 kts | 142° |
| 2026-05-06 04:58 | -8.59762 | 111.63350 | 48883 ft | 516 kts | 142° |
| 2026-05-06 04:58 | -8.65277 | 111.68004 | 48885 ft | 516 kts | 142° |
| 2026-05-06 04:59 | -8.70707 | 111.72589 | 48870 ft | 516 kts | 142° |
| 2026-05-06 04:59 | -8.76279 | 111.77302 | 48881 ft | 516 kts | 142° |
| 2026-05-06 05:00 | -8.81776 | 111.81965 | 48882 ft | 516 kts | 142° |
| 2026-05-06 05:00 | -8.87276 | 111.86637 | 48883 ft | 516 kts | 142° |
| 2026-05-06 05:01 | -8.92764 | 111.91309 | 48883 ft | 516 kts | 142° |
| 2026-05-06 05:01 | -8.98215 | 111.95960 | 48880 ft | 516 kts | 142° |
| 2026-05-06 05:02 | -9.03702 | 112.00648 | 48879 ft | 516 kts | 142° |
| 2026-05-06 05:02 | -9.09184 | 112.05335 | 48887 ft | 516 kts | 142° |
| 2026-05-06 05:03 | -9.14663 | 112.10022 | 48887 ft | 516 kts | 142° |
| 2026-05-06 05:03 | -9.20148 | 112.14711 | 48879 ft | 516 kts | 142° |
| 2026-05-06 05:04 | -9.25625 | 112.19393 | 48887 ft | 516 kts | 142° |
| 2026-05-06 05:04 | -9.31104 | 112.24076 | 48882 ft | 516 kts | 142° |
| 2026-05-06 05:05 | -9.36597 | 112.28771 | 48883 ft | 516 kts | 142° |
| 2026-05-06 05:05 | -9.42089 | 112.33461 | 48888 ft | 516 kts | 142° |
| 2026-05-06 05:06 | -9.47581 | 112.38146 | 48891 ft | 516 kts | 142° |
| 2026-05-06 05:06 | -9.53073 | 112.42826 | 48892 ft | 516 kts | 142° |
| 2026-05-06 05:07 | -9.58572 | 112.47510 | 48889 ft | 516 kts | 142° |
| 2026-05-06 05:07 | -9.64066 | 112.52190 | 48892 ft | 516 kts | 142° |
| 2026-05-06 05:08 | -9.69534 | 112.56848 | 48890 ft | 516 kts | 142° |
| 2026-05-06 05:08 | -9.75031 | 112.61528 | 48891 ft | 516 kts | 142° |
| 2026-05-06 05:09 | -9.80522 | 112.66202 | 48889 ft | 516 kts | 142° |
| 2026-05-06 05:09 | -9.86023 | 112.70884 | 48890 ft | 517 kts | 142° |
| 2026-05-06 05:10 | -9.91529 | 112.75570 | 48891 ft | 517 kts | 142° |
| 2026-05-06 05:10 | -9.97046 | 112.80269 | 48890 ft | 517 kts | 142° |
| 2026-05-06 05:11 | -10.02553 | 112.84963 | 48893 ft | 517 kts | 142° |
| 2026-05-06 05:11 | -10.08069 | 112.89670 | 48893 ft | 518 kts | 142° |
| 2026-05-06 05:12 | -10.13579 | 112.94381 | 48891 ft | 518 kts | 142° |
| 2026-05-06 05:12 | -10.19088 | 112.99096 | 48888 ft | 518 kts | 142° |
| 2026-05-06 05:13 | -10.24604 | 113.03823 | 48894 ft | 519 kts | 142° |
| 2026-05-06 05:13 | -10.30116 | 113.08557 | 48892 ft | 519 kts | 142° |
| 2026-05-06 05:14 | -10.35605 | 113.13280 | 48895 ft | 520 kts | 142° |
| 2026-05-06 05:14 | -10.41120 | 113.18037 | 48898 ft | 520 kts | 142° |
| 2026-05-06 05:15 | -10.46600 | 113.22776 | 48898 ft | 521 kts | 142° |
| 2026-05-06 05:15 | -10.52152 | 113.27583 | 48894 ft | 521 kts | 142° |
| 2026-05-06 05:16 | -10.57628 | 113.32326 | 48898 ft | 521 kts | 142° |
| 2026-05-06 05:16 | -10.63150 | 113.37110 | 48897 ft | 522 kts | 142° |
| 2026-05-06 05:17 | -10.68673 | 113.41901 | 48895 ft | 522 kts | 142° |
| 2026-05-06 05:17 | -10.74200 | 113.46697 | 48893 ft | 522 kts | 142° |
| 2026-05-06 05:18 | -10.79727 | 113.51498 | 48887 ft | 523 kts | 142° |
| 2026-05-06 05:18 | -10.85257 | 113.56305 | 48892 ft | 523 kts | 142° |
| 2026-05-06 05:19 | -10.90769 | 113.61101 | 48889 ft | 523 kts | 142° |
| 2026-05-06 05:19 | -10.96304 | 113.65923 | 48886 ft | 524 kts | 142° |
| 2026-05-06 05:20 | -11.01841 | 113.70748 | 48892 ft | 524 kts | 142° |
| 2026-05-06 05:20 | -11.07374 | 113.75576 | 48896 ft | 524 kts | 142° |
| 2026-05-06 05:21 | -11.12912 | 113.80412 | 48899 ft | 524 kts | 142° |
| 2026-05-06 05:21 | -11.18410 | 113.85218 | 48894 ft | 525 kts | 142° |
| 2026-05-06 05:22 | -11.23950 | 113.90066 | 48890 ft | 525 kts | 142° |
| 2026-05-06 05:22 | -11.29486 | 113.94917 | 48894 ft | 525 kts | 142° |
| 2026-05-06 05:23 | -11.35027 | 113.99781 | 48892 ft | 526 kts | 142° |
| 2026-05-06 05:23 | -11.43341 | 114.07090 | 48898 ft | 526 kts | 142° |
| 2026-05-06 05:24 | -11.48874 | 114.11965 | 48899 ft | 527 kts | 142° |
| 2026-05-06 05:24 | -11.54423 | 114.16858 | 48895 ft | 527 kts | 142° |
| 2026-05-06 05:25 | -11.59965 | 114.21752 | 48898 ft | 528 kts | 142° |
| 2026-05-06 05:25 | -11.65518 | 114.26661 | 48896 ft | 528 kts | 142° |
| 2026-05-06 05:26 | -11.71066 | 114.31568 | 48898 ft | 528 kts | 142° |
| 2026-05-06 05:26 | -11.75719 | 114.35693 | 48894 ft | 529 kts | 142° |
| 2026-05-06 05:27 | -11.81269 | 114.40615 | 48900 ft | 529 kts | 142° |
| 2026-05-06 05:27 | -11.86828 | 114.45549 | 48900 ft | 529 kts | 142° |
| 2026-05-06 05:28 | -11.92414 | 114.50430 | 48900 ft | 529 kts | 143° |
| 2026-05-06 05:28 | -11.98059 | 114.55277 | 48901 ft | 530 kts | 143° |
| 2026-05-06 05:29 | -12.03681 | 114.60115 | 48895 ft | 530 kts | 143° |
| 2026-05-06 05:29 | -12.09321 | 114.64974 | 48895 ft | 531 kts | 143° |
| 2026-05-06 05:30 | -12.14924 | 114.69811 | 48897 ft | 531 kts | 143° |
| 2026-05-06 05:30 | -12.20566 | 114.74688 | 48900 ft | 531 kts | 143° |
| 2026-05-06 05:31 | -12.26209 | 114.79569 | 48901 ft | 532 kts | 143° |
| 2026-05-06 05:31 | -12.31860 | 114.84463 | 48900 ft | 532 kts | 143° |
| 2026-05-06 05:32 | -12.37506 | 114.89358 | 48903 ft | 533 kts | 143° |
| 2026-05-06 05:32 | -12.43154 | 114.94264 | 48897 ft | 533 kts | 143° |
| 2026-05-06 05:33 | -12.48806 | 114.99178 | 48903 ft | 533 kts | 143° |
| 2026-05-06 05:33 | -12.54456 | 115.04101 | 48904 ft | 534 kts | 143° |
| 2026-05-06 05:34 | -12.60107 | 115.09028 | 48900 ft | 534 kts | 143° |
| 2026-05-06 05:34 | -12.65799 | 115.13996 | 48899 ft | 534 kts | 143° |
| 2026-05-06 05:35 | -12.71416 | 115.18907 | 48902 ft | 535 kts | 143° |
| 2026-05-06 05:35 | -12.77106 | 115.23892 | 48902 ft | 535 kts | 143° |
| 2026-05-06 05:36 | -12.82758 | 115.28851 | 48906 ft | 535 kts | 143° |
| 2026-05-06 05:36 | -12.88412 | 115.33823 | 48898 ft | 535 kts | 143° |
| 2026-05-06 05:37 | -12.94061 | 115.38795 | 48900 ft | 536 kts | 143° |
| 2026-05-06 05:37 | -12.99715 | 115.43774 | 48902 ft | 536 kts | 143° |
| 2026-05-06 05:38 | -13.05371 | 115.48760 | 48900 ft | 536 kts | 143° |
| 2026-05-06 05:38 | -13.11027 | 115.53750 | 48907 ft | 536 kts | 143° |
| 2026-05-06 05:39 | -13.16683 | 115.58743 | 48903 ft | 537 kts | 143° |
| 2026-05-06 05:39 | -13.22340 | 115.63744 | 48902 ft | 537 kts | 143° |
| 2026-05-06 05:40 | -13.27966 | 115.68722 | 48903 ft | 537 kts | 143° |
| 2026-05-06 05:40 | -13.33625 | 115.73735 | 48905 ft | 537 kts | 143° |
| 2026-05-06 05:41 | -13.39288 | 115.78753 | 48910 ft | 538 kts | 143° |
| 2026-05-06 05:41 | -13.44946 | 115.83773 | 48913 ft | 538 kts | 143° |
| 2026-05-06 05:42 | -13.50617 | 115.88810 | 48905 ft | 538 kts | 143° |
| 2026-05-06 05:42 | -13.56322 | 115.93884 | 48905 ft | 539 kts | 143° |
| 2026-05-06 05:43 | -13.61984 | 115.98922 | 48900 ft | 539 kts | 143° |
| 2026-05-06 05:43 | -13.67618 | 116.03940 | 48910 ft | 539 kts | 143° |
| 2026-05-06 05:44 | -13.73322 | 116.09025 | 48908 ft | 539 kts | 143° |
| 2026-05-06 05:44 | -13.78989 | 116.14079 | 48905 ft | 539 kts | 143° |
| 2026-05-06 05:45 | -13.84617 | 116.19104 | 48903 ft | 540 kts | 143° |
| 2026-05-06 05:45 | -13.90290 | 116.24173 | 48908 ft | 540 kts | 143° |
| 2026-05-06 05:46 | -13.95956 | 116.29243 | 48908 ft | 540 kts | 143° |
| 2026-05-06 05:46 | -14.01619 | 116.34316 | 48908 ft | 540 kts | 143° |
| 2026-05-06 05:47 | -14.07285 | 116.39397 | 48905 ft | 540 kts | 143° |
| 2026-05-06 05:47 | -14.12945 | 116.44481 | 48904 ft | 540 kts | 143° |
| 2026-05-06 05:48 | -14.18603 | 116.49571 | 48909 ft | 540 kts | 143° |
| 2026-05-06 05:48 | -14.24262 | 116.54669 | 48901 ft | 540 kts | 143° |
| 2026-05-06 05:49 | -14.29905 | 116.59762 | 48916 ft | 540 kts | 143° |
| 2026-05-06 05:49 | -14.35556 | 116.64870 | 48911 ft | 540 kts | 143° |
| 2026-05-06 05:50 | -14.41200 | 116.69981 | 48907 ft | 540 kts | 143° |
| 2026-05-06 05:50 | -14.46844 | 116.75102 | 48910 ft | 540 kts | 143° |
| 2026-05-06 05:51 | -14.52486 | 116.80230 | 48916 ft | 540 kts | 143° |
| 2026-05-06 05:51 | -14.58126 | 116.85367 | 48911 ft | 540 kts | 143° |
| 2026-05-06 05:52 | -14.63762 | 116.90510 | 48911 ft | 541 kts | 143° |
| 2026-05-06 05:52 | -14.69386 | 116.95656 | 48918 ft | 541 kts | 143° |
| 2026-05-06 05:53 | -14.75005 | 117.00809 | 48915 ft | 541 kts | 143° |
| 2026-05-06 05:53 | -14.80639 | 117.05987 | 48911 ft | 541 kts | 143° |
| 2026-05-06 05:54 | -14.86253 | 117.11157 | 48915 ft | 541 kts | 143° |
| 2026-05-06 05:54 | -14.91866 | 117.16335 | 48915 ft | 541 kts | 143° |
| 2026-05-06 05:55 | -14.97482 | 117.21523 | 48915 ft | 541 kts | 143° |
| 2026-05-06 05:55 | -15.03092 | 117.26712 | 48912 ft | 541 kts | 143° |
| 2026-05-06 05:56 | -15.08705 | 117.31916 | 48914 ft | 541 kts | 143° |
| 2026-05-06 05:56 | -15.14269 | 117.37087 | 48916 ft | 542 kts | 143° |
| 2026-05-06 05:57 | -15.19868 | 117.42302 | 48914 ft | 542 kts | 143° |
| 2026-05-06 05:57 | -15.25462 | 117.47524 | 48914 ft | 542 kts | 143° |
| 2026-05-06 05:58 | -15.31058 | 117.52762 | 48914 ft | 542 kts | 143° |
| 2026-05-06 05:58 | -15.36643 | 117.58001 | 48916 ft | 542 kts | 143° |
| 2026-05-06 05:59 | -15.42211 | 117.63239 | 48913 ft | 542 kts | 143° |
| 2026-05-06 05:59 | -15.47788 | 117.68495 | 48916 ft | 542 kts | 143° |
| 2026-05-06 06:00 | -15.53366 | 117.73759 | 48911 ft | 542 kts | 143° |
| 2026-05-06 06:00 | -15.58936 | 117.79025 | 48917 ft | 542 kts | 143° |
| 2026-05-06 06:01 | -15.64507 | 117.84300 | 48908 ft | 542 kts | 143° |
| 2026-05-06 06:01 | -15.70072 | 117.89580 | 48921 ft | 542 kts | 143° |
| 2026-05-06 06:02 | -15.75639 | 117.94878 | 48914 ft | 543 kts | 143° |
| 2026-05-06 06:02 | -15.81194 | 118.00179 | 48914 ft | 543 kts | 143° |
| 2026-05-06 06:03 | -15.86717 | 118.05453 | 48911 ft | 543 kts | 143° |
| 2026-05-06 06:03 | -15.92279 | 118.10769 | 48921 ft | 544 kts | 143° |
| 2026-05-06 06:04 | -15.97842 | 118.16092 | 48916 ft | 544 kts | 143° |
| 2026-05-06 06:04 | -16.03448 | 118.21460 | 48913 ft | 544 kts | 143° |
| 2026-05-06 06:05 | -16.09014 | 118.26797 | 48914 ft | 545 kts | 143° |
| 2026-05-06 06:05 | -16.14586 | 118.32147 | 48924 ft | 544 kts | 143° |
| 2026-05-06 06:06 | -16.20117 | 118.37469 | 48915 ft | 542 kts | 143° |
| 2026-05-06 06:06 | -16.25658 | 118.42809 | 48919 ft | 543 kts | 143° |
| 2026-05-06 06:07 | -16.31205 | 118.48160 | 48924 ft | 544 kts | 143° |
| 2026-05-06 06:07 | -16.36724 | 118.53491 | 48925 ft | 545 kts | 143° |
| 2026-05-06 06:08 | -16.42330 | 118.58908 | 48921 ft | 546 kts | 143° |
| 2026-05-06 06:08 | -16.47904 | 118.64297 | 48925 ft | 547 kts | 143° |
| 2026-05-06 06:09 | -16.53441 | 118.69655 | 48926 ft | 547 kts | 143° |
| 2026-05-06 06:09 | -16.59023 | 118.75057 | 48922 ft | 548 kts | 143° |
| 2026-05-06 06:10 | -16.64610 | 118.80467 | 48918 ft | 548 kts | 143° |
| 2026-05-06 06:10 | -16.69258 | 118.84966 | 48923 ft | 549 kts | 143° |
| 2026-05-06 06:11 | -16.74882 | 118.90412 | 48923 ft | 549 kts | 143° |
| 2026-05-06 06:11 | -16.80453 | 118.95803 | 48921 ft | 549 kts | 143° |
| 2026-05-06 06:12 | -16.86059 | 119.01226 | 48923 ft | 550 kts | 143° |
| 2026-05-06 06:12 | -16.91672 | 119.06654 | 48925 ft | 550 kts | 143° |
| 2026-05-06 06:13 | -16.97288 | 119.12082 | 48918 ft | 550 kts | 143° |
| 2026-05-06 06:13 | -17.02903 | 119.17507 | 48921 ft | 551 kts | 143° |
| 2026-05-06 06:14 | -17.08525 | 119.22938 | 48921 ft | 551 kts | 143° |
| 2026-05-06 06:14 | -17.14160 | 119.28381 | 48924 ft | 552 kts | 143° |
| 2026-05-06 06:15 | -17.19797 | 119.33824 | 48922 ft | 552 kts | 143° |
| 2026-05-06 06:15 | -17.25445 | 119.39277 | 48925 ft | 552 kts | 143° |
| 2026-05-06 06:16 | -17.31094 | 119.44731 | 48918 ft | 553 kts | 143° |
| 2026-05-06 06:16 | -17.36753 | 119.50195 | 48919 ft | 553 kts | 143° |
| 2026-05-06 06:17 | -17.42404 | 119.55652 | 48924 ft | 554 kts | 143° |
| 2026-05-06 06:17 | -17.48076 | 119.61131 | 48922 ft | 554 kts | 143° |
| 2026-05-06 06:18 | -17.53746 | 119.66611 | 48925 ft | 555 kts | 143° |
| 2026-05-06 06:18 | -17.59422 | 119.72100 | 48922 ft | 555 kts | 143° |
| 2026-05-06 06:19 | -17.65051 | 119.77550 | 48928 ft | 556 kts | 143° |
| 2026-05-06 06:19 | -17.70729 | 119.83057 | 48929 ft | 556 kts | 143° |
| 2026-05-06 06:20 | -17.76451 | 119.88613 | 48917 ft | 557 kts | 143° |
| 2026-05-06 06:20 | -17.82094 | 119.94104 | 48923 ft | 558 kts | 143° |
| 2026-05-06 06:21 | -17.87783 | 119.99646 | 48921 ft | 558 kts | 143° |
| 2026-05-06 06:21 | -17.93470 | 120.05195 | 48925 ft | 559 kts | 143° |
| 2026-05-06 06:22 | -17.99162 | 120.10757 | 48924 ft | 559 kts | 143° |
| 2026-05-06 06:22 | -18.04856 | 120.16331 | 48919 ft | 560 kts | 143° |
| 2026-05-06 06:23 | -18.10551 | 120.21915 | 48924 ft | 560 kts | 143° |
| 2026-05-06 06:23 | -18.16248 | 120.27512 | 48927 ft | 561 kts | 143° |
| 2026-05-06 06:24 | -18.21935 | 120.33109 | 48926 ft | 562 kts | 143° |
| 2026-05-06 06:24 | -18.27638 | 120.38736 | 48920 ft | 562 kts | 143° |
| 2026-05-06 06:25 | -18.33341 | 120.44374 | 48924 ft | 563 kts | 143° |
| 2026-05-06 06:26 | -18.41863 | 120.52820 | 48923 ft | 564 kts | 143° |
| 2026-05-06 06:26 | -18.47566 | 120.58487 | 48928 ft | 564 kts | 143° |
| 2026-05-06 06:27 | -18.53272 | 120.64169 | 48924 ft | 565 kts | 143° |
| 2026-05-06 06:27 | -18.58985 | 120.69871 | 48925 ft | 566 kts | 143° |
| 2026-05-06 06:28 | -18.64695 | 120.75583 | 48920 ft | 566 kts | 143° |
| 2026-05-06 06:28 | -18.70405 | 120.81309 | 48918 ft | 567 kts | 143° |
| 2026-05-06 06:29 | -18.76118 | 120.87048 | 48919 ft | 567 kts | 143° |
| 2026-05-06 06:29 | -18.81812 | 120.92777 | 48916 ft | 568 kts | 143° |
| 2026-05-06 06:30 | -18.87528 | 120.98538 | 48920 ft | 568 kts | 143° |
| 2026-05-06 06:30 | -18.93244 | 121.04309 | 48916 ft | 569 kts | 143° |
| 2026-05-06 06:31 | -18.98960 | 121.10090 | 48911 ft | 570 kts | 143° |
| 2026-05-06 06:31 | -19.04684 | 121.15894 | 48913 ft | 570 kts | 143° |
| 2026-05-06 06:32 | -19.10400 | 121.21702 | 48914 ft | 571 kts | 143° |
| 2026-05-06 06:32 | -19.16124 | 121.27529 | 48907 ft | 571 kts | 143° |
| 2026-05-06 06:33 | -19.21846 | 121.33362 | 48909 ft | 572 kts | 143° |
| 2026-05-06 06:33 | -19.27582 | 121.39218 | 48903 ft | 572 kts | 143° |
| 2026-05-06 06:34 | -19.33213 | 121.44975 | 48901 ft | 573 kts | 143° |
| 2026-05-06 06:34 | -19.38994 | 121.50894 | 48900 ft | 574 kts | 143° |
| 2026-05-06 06:35 | -19.44734 | 121.56782 | 48898 ft | 575 kts | 143° |
| 2026-05-06 06:35 | -19.50471 | 121.62679 | 48896 ft | 575 kts | 143° |
| 2026-05-06 06:36 | -19.56221 | 121.68594 | 48896 ft | 576 kts | 143° |
| 2026-05-06 06:36 | -19.61967 | 121.74512 | 48896 ft | 576 kts | 143° |
| 2026-05-06 06:37 | -19.67725 | 121.80444 | 48895 ft | 577 kts | 143° |
| 2026-05-06 06:37 | -19.73483 | 121.86380 | 48898 ft | 577 kts | 143° |
| 2026-05-06 06:38 | -19.79244 | 121.92325 | 48897 ft | 578 kts | 143° |
| 2026-05-06 06:38 | -19.85012 | 121.98277 | 48899 ft | 578 kts | 143° |
| 2026-05-06 06:39 | -19.90759 | 122.04211 | 48906 ft | 579 kts | 143° |
| 2026-05-06 06:39 | -19.96538 | 122.10182 | 48911 ft | 579 kts | 143° |
| 2026-05-06 06:40 | -20.02320 | 122.16157 | 48913 ft | 580 kts | 143° |
| 2026-05-06 06:40 | -20.08102 | 122.22134 | 48919 ft | 580 kts | 143° |
| 2026-05-06 06:41 | -20.13890 | 122.28115 | 48918 ft | 580 kts | 143° |
| 2026-05-06 06:41 | -20.19664 | 122.34081 | 48930 ft | 580 kts | 143° |
| 2026-05-06 06:42 | -20.25468 | 122.40079 | 48936 ft | 581 kts | 143° |
| 2026-05-06 06:42 | -20.31275 | 122.46081 | 48943 ft | 581 kts | 143° |
| 2026-05-06 06:43 | -20.37079 | 122.52082 | 48940 ft | 581 kts | 143° |
| 2026-05-06 06:43 | -20.42835 | 122.58030 | 48939 ft | 581 kts | 143° |
| 2026-05-06 06:44 | -20.48624 | 122.64014 | 48944 ft | 581 kts | 143° |
| 2026-05-06 06:44 | -20.54435 | 122.70021 | 48957 ft | 581 kts | 143° |
| 2026-05-06 06:45 | -20.60241 | 122.76023 | 48958 ft | 582 kts | 143° |
| 2026-05-06 06:45 | -20.66055 | 122.82034 | 48959 ft | 582 kts | 143° |
| 2026-05-06 06:46 | -20.71872 | 122.88046 | 48966 ft | 582 kts | 143° |
| 2026-05-06 06:46 | -20.77693 | 122.94062 | 48973 ft | 582 kts | 143° |
| 2026-05-06 06:47 | -20.83512 | 123.00079 | 48973 ft | 582 kts | 143° |
| 2026-05-06 06:47 | -20.89338 | 123.06100 | 48978 ft | 582 kts | 143° |
| 2026-05-06 06:48 | -20.95166 | 123.12126 | 48987 ft | 583 kts | 143° |
| 2026-05-06 06:48 | -21.00997 | 123.18155 | 48987 ft | 583 kts | 143° |
| 2026-05-06 06:49 | -21.06829 | 123.24186 | 49000 ft | 583 kts | 143° |
| 2026-05-06 06:49 | -21.12658 | 123.30216 | 49003 ft | 583 kts | 143° |
| 2026-05-06 06:50 | -21.18459 | 123.36216 | 49005 ft | 583 kts | 144° |
| 2026-05-06 06:50 | -21.24298 | 123.42258 | 49011 ft | 584 kts | 143° |
| 2026-05-06 06:51 | -21.30141 | 123.48308 | 49014 ft | 584 kts | 144° |
| 2026-05-06 06:51 | -21.35983 | 123.54356 | 49019 ft | 584 kts | 144° |
| 2026-05-06 06:52 | -21.41829 | 123.60410 | 49022 ft | 584 kts | 144° |
| 2026-05-06 06:52 | -21.47679 | 123.66466 | 49020 ft | 584 kts | 144° |
| 2026-05-06 06:53 | -21.53528 | 123.72525 | 49028 ft | 585 kts | 144° |
| 2026-05-06 06:53 | -21.59387 | 123.78594 | 49026 ft | 585 kts | 144° |
| 2026-05-06 06:54 | -21.65227 | 123.84641 | 49028 ft | 585 kts | 144° |
| 2026-05-06 06:54 | -21.71093 | 123.90715 | 49024 ft | 586 kts | 144° |
| 2026-05-06 06:55 | -21.76960 | 123.96788 | 49030 ft | 586 kts | 144° |
| 2026-05-06 06:55 | -21.82840 | 124.02878 | 49035 ft | 586 kts | 144° |
| 2026-05-06 06:56 | -21.88716 | 124.08956 | 49034 ft | 586 kts | 144° |
| 2026-05-06 06:56 | -21.94606 | 124.15044 | 49028 ft | 586 kts | 144° |
| 2026-05-06 06:57 | -22.00489 | 124.21125 | 49032 ft | 587 kts | 144° |
| 2026-05-06 06:57 | -22.06371 | 124.27208 | 49035 ft | 587 kts | 144° |
| 2026-05-06 06:58 | -22.12271 | 124.33308 | 49040 ft | 587 kts | 144° |
| 2026-05-06 06:58 | -22.18159 | 124.39388 | 49044 ft | 587 kts | 144° |
| 2026-05-06 06:59 | -22.24023 | 124.45437 | 49052 ft | 587 kts | 144° |
| 2026-05-06 06:59 | -22.29921 | 124.51518 | 49047 ft | 587 kts | 144° |
| 2026-05-06 07:00 | -22.35840 | 124.57615 | 49052 ft | 587 kts | 144° |
| 2026-05-06 07:00 | -22.41756 | 124.63704 | 49057 ft | 587 kts | 144° |
| 2026-05-06 07:01 | -22.46716 | 124.68799 | 49061 ft | 587 kts | 144° |
| 2026-05-06 07:01 | -22.52596 | 124.74837 | 49059 ft | 587 kts | 144° |
| 2026-05-06 07:02 | -22.58519 | 124.80908 | 49059 ft | 587 kts | 144° |
| 2026-05-06 07:02 | -22.64451 | 124.86981 | 49070 ft | 587 kts | 144° |
| 2026-05-06 07:03 | -22.70385 | 124.93046 | 49078 ft | 587 kts | 144° |
| 2026-05-06 07:03 | -22.76331 | 124.99108 | 49079 ft | 587 kts | 144° |
| 2026-05-06 07:04 | -22.82288 | 125.05163 | 49078 ft | 587 kts | 144° |
| 2026-05-06 07:04 | -22.88226 | 125.11182 | 49080 ft | 587 kts | 144° |
| 2026-05-06 07:05 | -22.94199 | 125.17218 | 49084 ft | 587 kts | 144° |
| 2026-05-06 07:05 | -23.00179 | 125.23247 | 49088 ft | 586 kts | 144° |
| 2026-05-06 07:06 | -23.06164 | 125.29265 | 49096 ft | 586 kts | 144° |
| 2026-05-06 07:06 | -23.12159 | 125.35278 | 49099 ft | 586 kts | 144° |
| 2026-05-06 07:07 | -23.18152 | 125.41275 | 49097 ft | 586 kts | 144° |
| 2026-05-06 07:07 | -23.24164 | 125.47275 | 49104 ft | 586 kts | 144° |
| 2026-05-06 07:08 | -23.30170 | 125.53252 | 49103 ft | 586 kts | 144° |
| 2026-05-06 07:08 | -23.36189 | 125.59225 | 49107 ft | 585 kts | 144° |
| 2026-05-06 07:09 | -23.42206 | 125.65182 | 49105 ft | 585 kts | 144° |
| 2026-05-06 07:09 | -23.48210 | 125.71120 | 49119 ft | 585 kts | 144° |
| 2026-05-06 07:10 | -23.54244 | 125.77075 | 49111 ft | 584 kts | 144° |
| 2026-05-06 07:10 | -23.60273 | 125.83015 | 49121 ft | 584 kts | 144° |
| 2026-05-06 07:11 | -23.66265 | 125.88905 | 49122 ft | 584 kts | 144° |
| 2026-05-06 07:11 | -23.72300 | 125.94827 | 49127 ft | 584 kts | 144° |
| 2026-05-06 07:12 | -23.78341 | 126.00747 | 49126 ft | 583 kts | 144° |
| 2026-05-06 07:12 | -23.84383 | 126.06660 | 49132 ft | 583 kts | 144° |
| 2026-05-06 07:13 | -23.90430 | 126.12566 | 49129 ft | 583 kts | 144° |
| 2026-05-06 07:13 | -23.96474 | 126.18460 | 49138 ft | 583 kts | 144° |
| 2026-05-06 07:14 | -24.02529 | 126.24356 | 49137 ft | 582 kts | 144° |
| 2026-05-06 07:14 | -24.08555 | 126.30218 | 49137 ft | 582 kts | 144° |
| 2026-05-06 07:15 | -24.14612 | 126.36101 | 49146 ft | 582 kts | 144° |
| 2026-05-06 07:15 | -24.20676 | 126.41980 | 49151 ft | 582 kts | 144° |
| 2026-05-06 07:16 | -24.26743 | 126.47850 | 49152 ft | 582 kts | 144° |
| 2026-05-06 07:16 | -24.32820 | 126.53717 | 49155 ft | 582 kts | 144° |
| 2026-05-06 07:17 | -24.38898 | 126.59576 | 49163 ft | 581 kts | 144° |
| 2026-05-06 07:17 | -24.44976 | 126.65423 | 49165 ft | 581 kts | 144° |
| 2026-05-06 07:18 | -24.51063 | 126.71268 | 49166 ft | 581 kts | 144° |
| 2026-05-06 07:18 | -24.57111 | 126.77062 | 49169 ft | 581 kts | 144° |
| 2026-05-06 07:19 | -24.63202 | 126.82884 | 49167 ft | 581 kts | 144° |
| 2026-05-06 07:19 | -24.69287 | 126.88690 | 49173 ft | 580 kts | 144° |
| 2026-05-06 07:20 | -24.75391 | 126.94506 | 49168 ft | 580 kts | 144° |
| 2026-05-06 07:20 | -24.81495 | 127.00309 | 49169 ft | 580 kts | 144° |
| 2026-05-06 07:21 | -24.87606 | 127.06110 | 49175 ft | 580 kts | 144° |
| 2026-05-06 07:21 | -24.93715 | 127.11898 | 49175 ft | 579 kts | 144° |
| 2026-05-06 07:22 | -24.99831 | 127.17685 | 49178 ft | 579 kts | 144° |
| 2026-05-06 07:22 | -25.05948 | 127.23465 | 49187 ft | 579 kts | 144° |
| 2026-05-06 07:23 | -25.12064 | 127.29239 | 49188 ft | 579 kts | 144° |
| 2026-05-06 07:23 | -25.18187 | 127.35012 | 49186 ft | 579 kts | 144° |
| 2026-05-06 07:24 | -25.24215 | 127.40686 | 49191 ft | 579 kts | 144° |
| 2026-05-06 07:24 | -25.30389 | 127.46490 | 49200 ft | 579 kts | 144° |
| 2026-05-06 07:25 | -25.36564 | 127.52292 | 49198 ft | 578 kts | 145° |
| 2026-05-06 07:25 | -25.42697 | 127.58048 | 49203 ft | 578 kts | 145° |
| 2026-05-06 07:26 | -25.48834 | 127.63800 | 49206 ft | 578 kts | 145° |
| 2026-05-06 07:26 | -25.54977 | 127.69553 | 49217 ft | 578 kts | 145° |
| 2026-05-06 07:27 | -25.61118 | 127.75296 | 49222 ft | 578 kts | 145° |
| 2026-05-06 07:27 | -25.67225 | 127.81000 | 49219 ft | 578 kts | 145° |
| 2026-05-06 07:28 | -25.73371 | 127.86735 | 49222 ft | 578 kts | 145° |
| 2026-05-06 07:28 | -25.82597 | 127.95337 | 49228 ft | 577 kts | 145° |
| 2026-05-06 07:29 | -25.88729 | 128.01048 | 49231 ft | 577 kts | 145° |
| 2026-05-06 07:29 | -25.94883 | 128.06773 | 49234 ft | 577 kts | 145° |
| 2026-05-06 07:30 | -26.01042 | 128.12499 | 49237 ft | 577 kts | 145° |
| 2026-05-06 07:30 | -26.07208 | 128.18221 | 49243 ft | 577 kts | 145° |
| 2026-05-06 07:31 | -26.13373 | 128.23935 | 49246 ft | 577 kts | 145° |
| 2026-05-06 07:31 | -26.19545 | 128.29651 | 49250 ft | 577 kts | 145° |
| 2026-05-06 07:32 | -26.25717 | 128.35362 | 49247 ft | 577 kts | 145° |
| 2026-05-06 07:32 | -26.31890 | 128.41065 | 49260 ft | 577 kts | 145° |
| 2026-05-06 07:33 | -26.38069 | 128.46766 | 49260 ft | 576 kts | 145° |
| 2026-05-06 07:33 | -26.44255 | 128.52462 | 49250 ft | 576 kts | 145° |
| 2026-05-06 07:34 | -26.50435 | 128.58146 | 49252 ft | 576 kts | 145° |
| 2026-05-06 07:34 | -26.56622 | 128.63826 | 49251 ft | 576 kts | 145° |
| 2026-05-06 07:35 | -26.62813 | 128.69502 | 49261 ft | 575 kts | 145° |
| 2026-05-06 07:35 | -26.69005 | 128.75172 | 49263 ft | 575 kts | 145° |
| 2026-05-06 07:36 | -26.75191 | 128.80825 | 49266 ft | 575 kts | 145° |
| 2026-05-06 07:36 | -26.81403 | 128.86489 | 49267 ft | 575 kts | 145° |
| 2026-05-06 07:37 | -26.87608 | 128.92138 | 49274 ft | 575 kts | 145° |
| 2026-05-06 07:37 | -26.93819 | 128.97781 | 49275 ft | 575 kts | 145° |
| 2026-05-06 07:38 | -27.00027 | 129.03412 | 49278 ft | 574 kts | 145° |
| 2026-05-06 07:38 | -27.06206 | 129.09006 | 49282 ft | 574 kts | 145° |
| 2026-05-06 07:39 | -27.12448 | 129.14649 | 49284 ft | 574 kts | 145° |
| 2026-05-06 07:39 | -27.18628 | 129.20225 | 49284 ft | 574 kts | 145° |
| 2026-05-06 07:40 | -27.24858 | 129.25842 | 49284 ft | 574 kts | 145° |
| 2026-05-06 07:40 | -27.31084 | 129.31447 | 49284 ft | 573 kts | 145° |
| 2026-05-06 07:41 | -27.37321 | 129.37055 | 49298 ft | 573 kts | 145° |
| 2026-05-06 07:41 | -27.43548 | 129.42649 | 49292 ft | 573 kts | 145° |
| 2026-05-06 07:42 | -27.49779 | 129.48236 | 49289 ft | 573 kts | 145° |
| 2026-05-06 07:42 | -27.56012 | 129.53821 | 49290 ft | 573 kts | 145° |
| 2026-05-06 07:43 | -27.62259 | 129.59413 | 49293 ft | 572 kts | 146° |
| 2026-05-06 07:43 | -27.68495 | 129.64990 | 49300 ft | 572 kts | 146° |
| 2026-05-06 07:44 | -27.74679 | 129.70514 | 49298 ft | 572 kts | 146° |
| 2026-05-06 07:44 | -27.80925 | 129.76089 | 49302 ft | 572 kts | 146° |
| 2026-05-06 07:45 | -27.87173 | 129.81665 | 49307 ft | 572 kts | 146° |
| 2026-05-06 07:45 | -27.93419 | 129.87233 | 49311 ft | 572 kts | 146° |
| 2026-05-06 07:46 | -27.99663 | 129.92796 | 49307 ft | 572 kts | 146° |
| 2026-05-06 07:46 | -28.05920 | 129.98368 | 49310 ft | 572 kts | 146° |
| 2026-05-06 07:47 | -28.12174 | 130.03934 | 49313 ft | 572 kts | 146° |
| 2026-05-06 07:47 | -28.18379 | 130.09455 | 49315 ft | 572 kts | 146° |
| 2026-05-06 07:48 | -28.24668 | 130.15097 | 49312 ft | 572 kts | 145° |
| 2026-05-06 07:48 | -28.30865 | 130.20761 | 49309 ft | 572 kts | 145° |
| 2026-05-06 07:49 | -28.37038 | 130.26420 | 49311 ft | 572 kts | 145° |
| 2026-05-06 07:49 | -28.42184 | 130.31137 | 49316 ft | 572 kts | 145° |
| 2026-05-06 07:50 | -28.48361 | 130.36796 | 49315 ft | 571 kts | 145° |
| 2026-05-06 07:50 | -28.54566 | 130.42474 | 49318 ft | 571 kts | 145° |
| 2026-05-06 07:51 | -28.60675 | 130.48270 | 49323 ft | 572 kts | 143° |
| 2026-05-06 07:51 | -28.66731 | 130.54154 | 49323 ft | 572 kts | 143° |
| 2026-05-06 07:52 | -28.72778 | 130.60048 | 49325 ft | 572 kts | 143° |
| 2026-05-06 07:52 | -28.75815 | 130.63009 | 49174 ft | 572 kts | 143° |
| 2026-05-06 07:52 | -28.78803 | 130.65925 | 49880 ft | 559 kts | 143° |
| 2026-05-06 07:53 | -28.81731 | 130.68789 | 50430 ft | 550 kts | 143° |
| 2026-05-06 07:53 | -28.84624 | 130.71622 | 50707 ft | 548 kts | 143° |
| 2026-05-06 07:53 | -28.90373 | 130.77249 | 50883 ft | 549 kts | 143° |
| 2026-05-06 07:54 | -28.93277 | 130.80088 | 50989 ft | 549 kts | 143° |
| 2026-05-06 07:54 | -28.96152 | 130.82900 | 51087 ft | 549 kts | 143° |
| 2026-05-06 07:54 | -29.01967 | 130.88581 | 51264 ft | 550 kts | 143° |
| 2026-05-06 07:55 | -29.04869 | 130.91416 | 51444 ft | 548 kts | 143° |
| 2026-05-06 07:55 | -29.07761 | 130.94240 | 51629 ft | 546 kts | 143° |
| 2026-05-06 07:55 | -29.10643 | 130.97061 | 51784 ft | 545 kts | 142° |
| 2026-05-06 07:55 | -29.13487 | 130.99933 | 51936 ft | 545 kts | 142° |
| 2026-05-06 07:56 | -29.16302 | 131.02829 | 52071 ft | 544 kts | 141° |
| 2026-05-06 07:56 | -29.19105 | 131.05734 | 52194 ft | 544 kts | 141° |
| 2026-05-06 07:56 | -29.21901 | 131.08638 | 52297 ft | 543 kts | 141° |
| 2026-05-06 07:56 | -29.24696 | 131.11546 | 52404 ft | 543 kts | 141° |
| 2026-05-06 07:57 | -29.27487 | 131.14449 | 52509 ft | 542 kts | 141° |
| 2026-05-06 07:57 | -29.30284 | 131.17359 | 52595 ft | 542 kts | 141° |
| 2026-05-06 07:57 | -29.35863 | 131.23161 | 52768 ft | 542 kts | 141° |
| 2026-05-06 07:58 | -29.41456 | 131.28976 | 52911 ft | 542 kts | 141° |
| 2026-05-06 07:58 | -29.46957 | 131.34894 | 53041 ft | 543 kts | 140° |
| 2026-05-06 07:59 | -29.52390 | 131.40882 | 53145 ft | 543 kts | 139° |
| 2026-05-06 07:59 | -29.57829 | 131.46895 | 53251 ft | 543 kts | 139° |
| 2026-05-06 08:00 | -29.63271 | 131.52916 | 53342 ft | 543 kts | 139° |
| 2026-05-06 08:00 | -29.68592 | 131.59118 | 53338 ft | 546 kts | 136° |
| 2026-05-06 08:01 | -29.73764 | 131.65540 | 53333 ft | 548 kts | 135° |
| 2026-05-06 08:01 | -29.78926 | 131.72012 | 53335 ft | 549 kts | 135° |
| 2026-05-06 08:02 | -29.84099 | 131.78506 | 53334 ft | 550 kts | 135° |
| 2026-05-06 08:02 | -29.89275 | 131.85004 | 53333 ft | 551 kts | 135° |
| 2026-05-06 08:03 | -29.94462 | 131.91512 | 53338 ft | 551 kts | 135° |
| 2026-05-06 08:03 | -29.99656 | 131.98021 | 53335 ft | 552 kts | 135° |
| 2026-05-06 08:04 | -30.04848 | 132.04523 | 53331 ft | 552 kts | 135° |
| 2026-05-06 08:04 | -30.10054 | 132.11041 | 53330 ft | 552 kts | 135° |
| 2026-05-06 08:05 | -30.15234 | 132.17520 | 53333 ft | 552 kts | 135° |
| 2026-05-06 08:05 | -30.20443 | 132.24036 | 53342 ft | 552 kts | 135° |
| 2026-05-06 08:06 | -30.25662 | 132.30559 | 53325 ft | 552 kts | 136° |
| 2026-05-06 08:06 | -30.30882 | 132.37084 | 53329 ft | 552 kts | 136° |
| 2026-05-06 08:07 | -30.36108 | 132.43610 | 53333 ft | 552 kts | 136° |
| 2026-05-06 08:07 | -30.41332 | 132.50131 | 53333 ft | 552 kts | 136° |
| 2026-05-06 08:08 | -30.46564 | 132.56657 | 53334 ft | 552 kts | 136° |
| 2026-05-06 08:08 | -30.51797 | 132.63181 | 53329 ft | 553 kts | 136° |
| 2026-05-06 08:09 | -30.57015 | 132.69683 | 53320 ft | 552 kts | 136° |
| 2026-05-06 08:09 | -30.62254 | 132.76208 | 53333 ft | 552 kts | 136° |
| 2026-05-06 08:10 | -30.67501 | 132.82738 | 53338 ft | 552 kts | 136° |
| 2026-05-06 08:10 | -30.72741 | 132.89257 | 53339 ft | 552 kts | 136° |
| 2026-05-06 08:11 | -30.77990 | 132.95782 | 53335 ft | 552 kts | 136° |
| 2026-05-06 08:11 | -30.83209 | 133.02266 | 53334 ft | 552 kts | 136° |
| 2026-05-06 08:12 | -30.88469 | 133.08795 | 53332 ft | 553 kts | 136° |
| 2026-05-06 08:12 | -30.93728 | 133.15318 | 53335 ft | 553 kts | 136° |
| 2026-05-06 08:13 | -30.98991 | 133.21838 | 53337 ft | 553 kts | 136° |
| 2026-05-06 08:13 | -31.04266 | 133.28371 | 53330 ft | 553 kts | 136° |
| 2026-05-06 08:14 | -31.09524 | 133.34881 | 53335 ft | 553 kts | 136° |
| 2026-05-06 08:14 | -31.14795 | 133.41403 | 53330 ft | 553 kts | 136° |
| 2026-05-06 08:15 | -31.20080 | 133.47939 | 53333 ft | 553 kts | 136° |
| 2026-05-06 08:15 | -31.25361 | 133.54468 | 53333 ft | 553 kts | 136° |
| 2026-05-06 08:16 | -31.30648 | 133.61000 | 53330 ft | 553 kts | 136° |
| 2026-05-06 08:16 | -31.35938 | 133.67533 | 53327 ft | 553 kts | 136° |
| 2026-05-06 08:17 | -31.41234 | 133.74068 | 53335 ft | 553 kts | 136° |
| 2026-05-06 08:17 | -31.46527 | 133.80598 | 53332 ft | 553 kts | 136° |
| 2026-05-06 08:18 | -31.51829 | 133.87138 | 53336 ft | 553 kts | 136° |
| 2026-05-06 08:18 | -31.57133 | 133.93674 | 53330 ft | 553 kts | 136° |
| 2026-05-06 08:19 | -31.62422 | 134.00191 | 53331 ft | 553 kts | 136° |
| 2026-05-06 08:19 | -31.67732 | 134.06734 | 53335 ft | 553 kts | 136° |
| 2026-05-06 08:20 | -31.73045 | 134.13273 | 53326 ft | 554 kts | 136° |
| 2026-05-06 08:20 | -31.78359 | 134.19814 | 53327 ft | 554 kts | 136° |
| 2026-05-06 08:21 | -31.83680 | 134.26361 | 53335 ft | 554 kts | 136° |
| 2026-05-06 08:21 | -31.89004 | 134.32911 | 53328 ft | 554 kts | 136° |
| 2026-05-06 08:22 | -31.94332 | 134.39462 | 53335 ft | 554 kts | 136° |
| 2026-05-06 08:22 | -31.99664 | 134.46016 | 53326 ft | 554 kts | 137° |
| 2026-05-06 08:23 | -32.04962 | 134.52527 | 53326 ft | 554 kts | 137° |
| 2026-05-06 08:23 | -32.10297 | 134.59080 | 53331 ft | 554 kts | 137° |
| 2026-05-06 08:24 | -32.15637 | 134.65638 | 53327 ft | 554 kts | 137° |
| 2026-05-06 08:24 | -32.20976 | 134.72194 | 53329 ft | 554 kts | 137° |
| 2026-05-06 08:25 | -32.26304 | 134.78739 | 53550 ft | 550 kts | 137° |
| 2026-05-06 08:25 | -32.28947 | 134.81987 | 53675 ft | 548 kts | 137° |
| 2026-05-06 08:25 | -32.31580 | 134.85226 | 53782 ft | 546 kts | 137° |
| 2026-05-06 08:26 | -32.36836 | 134.91689 | 53949 ft | 544 kts | 137° |
| 2026-05-06 08:26 | -32.42071 | 134.98128 | 54069 ft | 542 kts | 137° |
| 2026-05-06 08:27 | -32.47298 | 135.04557 | 54186 ft | 541 kts | 137° |
| 2026-05-06 08:27 | -32.49076 | 135.06744 | 54218 ft | 541 kts | 137° |
| 2026-05-06 08:28 | -32.54301 | 135.13172 | 54309 ft | 540 kts | 137° |
| 2026-05-06 08:28 | -32.59516 | 135.19587 | 54363 ft | 540 kts | 137° |
| 2026-05-06 08:29 | -32.64712 | 135.25978 | 54423 ft | 540 kts | 137° |
| 2026-05-06 08:29 | -32.69925 | 135.32388 | 54469 ft | 540 kts | 137° |
| 2026-05-06 08:30 | -32.75140 | 135.38800 | 54521 ft | 540 kts | 137° |
| 2026-05-06 08:30 | -32.80357 | 135.45207 | 54551 ft | 540 kts | 137° |
| 2026-05-06 08:31 | -32.85543 | 135.51576 | 54585 ft | 540 kts | 137° |
| 2026-05-06 08:31 | -32.90772 | 135.57994 | 54587 ft | 541 kts | 137° |
| 2026-05-06 08:32 | -32.93414 | 135.61231 | 54109 ft | 550 kts | 137° |
| 2026-05-06 08:32 | -32.96055 | 135.64468 | 54422 ft | 543 kts | 137° |
| 2026-05-06 08:32 | -32.98681 | 135.67685 | 54308 ft | 546 kts | 137° |
| 2026-05-06 08:32 | -33.01340 | 135.70939 | 54221 ft | 548 kts | 137° |
| 2026-05-06 08:33 | -33.06676 | 135.77468 | 54100 ft | 550 kts | 137° |
| 2026-05-06 08:33 | -33.09337 | 135.80724 | 54286 ft | 546 kts | 137° |
| 2026-05-06 08:33 | -33.11968 | 135.83944 | 54485 ft | 542 kts | 137° |
| 2026-05-06 08:34 | -33.14578 | 135.87138 | 54634 ft | 540 kts | 137° |
| 2026-05-06 08:34 | -33.19800 | 135.93533 | 54855 ft | 536 kts | 137° |
| 2026-05-06 08:35 | -33.24973 | 135.99912 | 55002 ft | 533 kts | 137° |
| 2026-05-06 08:35 | -33.29747 | 136.05915 | 55112 ft | 532 kts | 136° |
| 2026-05-06 08:36 | -33.30484 | 136.06845 | 55123 ft | 531 kts | 136° |
| 2026-05-06 08:36 | -33.34620 | 136.12072 | 55196 ft | 530 kts | 136° |
| 2026-05-06 08:37 | -33.39691 | 136.18488 | 55248 ft | 529 kts | 136° |
| 2026-05-06 08:37 | -33.44749 | 136.24887 | 55283 ft | 528 kts | 136° |
| 2026-05-06 08:38 | -33.49799 | 136.31275 | 55307 ft | 528 kts | 136° |
| 2026-05-06 08:38 | -33.53996 | 136.36582 | 55324 ft | 527 kts | 137° |
| 2026-05-06 08:39 | -33.59038 | 136.42959 | 55336 ft | 527 kts | 137° |
| 2026-05-06 08:39 | -33.64055 | 136.49303 | 55345 ft | 527 kts | 137° |
| 2026-05-06 08:40 | -33.69097 | 136.55677 | 55362 ft | 526 kts | 137° |
| 2026-05-06 08:40 | -33.74144 | 136.62056 | 55353 ft | 526 kts | 137° |
| 2026-05-06 08:41 | -33.79199 | 136.68444 | 55197 ft | 530 kts | 137° |
| 2026-05-06 08:41 | -33.84285 | 136.74868 | 55142 ft | 531 kts | 137° |
| 2026-05-06 08:42 | -33.89388 | 136.81310 | 55131 ft | 531 kts | 137° |
| 2026-05-06 08:42 | -33.91930 | 136.84522 | 55234 ft | 529 kts | 137° |
| 2026-05-06 08:42 | -33.94465 | 136.87726 | 55307 ft | 527 kts | 137° |
| 2026-05-06 08:43 | -33.99511 | 136.94108 | 55421 ft | 525 kts | 137° |
| 2026-05-06 08:43 | -34.04534 | 137.00464 | 55486 ft | 523 kts | 137° |
| 2026-05-06 08:44 | -34.09550 | 137.06816 | 55439 ft | 524 kts | 137° |
| 2026-05-06 08:44 | -34.12063 | 137.10001 | 55314 ft | 526 kts | 136° |
| 2026-05-06 08:44 | -34.14503 | 137.13225 | 55307 ft | 527 kts | 135° |
| 2026-05-06 08:45 | -34.19346 | 137.19875 | 55310 ft | 527 kts | 134° |
| 2026-05-06 08:45 | -34.24159 | 137.26560 | 55304 ft | 527 kts | 134° |
| 2026-05-06 08:46 | -34.28967 | 137.33252 | 55305 ft | 527 kts | 134° |
| 2026-05-06 08:46 | -34.33777 | 137.39948 | 55307 ft | 527 kts | 134° |
| 2026-05-06 08:47 | -34.38593 | 137.46644 | 55309 ft | 527 kts | 134° |
| 2026-05-06 08:47 | -34.43414 | 137.53346 | 55312 ft | 528 kts | 134° |
| 2026-05-06 08:48 | -34.48239 | 137.60047 | 55320 ft | 528 kts | 134° |
| 2026-05-06 08:48 | -34.53067 | 137.66753 | 55311 ft | 528 kts | 134° |
| 2026-05-06 08:49 | -34.57903 | 137.73468 | 55300 ft | 529 kts | 134° |
| 2026-05-06 08:49 | -34.62733 | 137.80174 | 55302 ft | 529 kts | 134° |
| 2026-05-06 08:50 | -34.67572 | 137.86892 | 55302 ft | 529 kts | 135° |
| 2026-05-06 08:50 | -34.72423 | 137.93624 | 55300 ft | 529 kts | 135° |
| 2026-05-06 08:51 | -34.77199 | 138.00423 | 55299 ft | 531 kts | 130° |
| 2026-05-06 08:51 | -34.81566 | 138.07699 | 55308 ft | 532 kts | 128° |
| 2026-05-06 08:52 | -34.85812 | 138.15075 | 55296 ft | 533 kts | 128° |
| 2026-05-06 08:52 | -34.90047 | 138.22486 | 55286 ft | 533 kts | 128° |
| 2026-05-06 08:53 | -34.94279 | 138.29897 | 55275 ft | 533 kts | 128° |
| 2026-05-06 08:53 | -34.98520 | 138.37319 | 55275 ft | 534 kts | 128° |
| 2026-05-06 08:54 | -35.02770 | 138.44748 | 55272 ft | 534 kts | 128° |
| 2026-05-06 08:54 | -35.07010 | 138.52152 | 55275 ft | 534 kts | 128° |
| 2026-05-06 08:55 | -35.11273 | 138.59584 | 55292 ft | 535 kts | 128° |
| 2026-05-06 08:55 | -35.15530 | 138.66987 | 55294 ft | 536 kts | 128° |
| 2026-05-06 08:56 | -35.19823 | 138.74434 | 55298 ft | 536 kts | 128° |
| 2026-05-06 08:56 | -35.24131 | 138.81888 | 55302 ft | 537 kts | 128° |
| 2026-05-06 08:57 | -35.28454 | 138.89344 | 55294 ft | 538 kts | 128° |
| 2026-05-06 08:57 | -35.32789 | 138.96794 | 55296 ft | 538 kts | 128° |
| 2026-05-06 08:58 | -35.37150 | 139.04271 | 55279 ft | 539 kts | 128° |
| 2026-05-06 08:58 | -35.41508 | 139.11724 | 55278 ft | 539 kts | 128° |
| 2026-05-06 08:59 | -35.45858 | 139.19151 | 55283 ft | 540 kts | 128° |
| 2026-05-06 08:59 | -35.50248 | 139.26639 | 55282 ft | 540 kts | 128° |
| 2026-05-06 09:00 | -35.54645 | 139.34132 | 55278 ft | 541 kts | 128° |
| 2026-05-06 09:00 | -35.59051 | 139.41634 | 55276 ft | 542 kts | 128° |
| 2026-05-06 09:01 | -35.63462 | 139.49141 | 55280 ft | 542 kts | 128° |
| 2026-05-06 09:01 | -35.67883 | 139.56661 | 55265 ft | 543 kts | 129° |
| 2026-05-06 09:02 | -35.72313 | 139.64194 | 55267 ft | 544 kts | 129° |
| 2026-05-06 09:02 | -35.76751 | 139.71740 | 55273 ft | 544 kts | 129° |
| 2026-05-06 09:03 | -35.81199 | 139.79302 | 55272 ft | 545 kts | 129° |
| 2026-05-06 09:03 | -35.85658 | 139.86875 | 55262 ft | 546 kts | 129° |
| 2026-05-06 09:04 | -35.90099 | 139.94410 | 55266 ft | 547 kts | 129° |
| 2026-05-06 09:04 | -35.94587 | 140.02015 | 55264 ft | 548 kts | 129° |
| 2026-05-06 09:05 | -35.99079 | 140.09615 | 55263 ft | 548 kts | 129° |
| 2026-05-06 09:05 | -36.03587 | 140.17238 | 55260 ft | 549 kts | 129° |
| 2026-05-06 09:06 | -36.08096 | 140.24854 | 55252 ft | 550 kts | 129° |
| 2026-05-06 09:06 | -36.12587 | 140.32433 | 55251 ft | 551 kts | 129° |
| 2026-05-06 09:07 | -36.17126 | 140.40082 | 55246 ft | 551 kts | 129° |
| 2026-05-06 09:07 | -36.21673 | 140.47733 | 55247 ft | 552 kts | 129° |
| 2026-05-06 09:08 | -36.26233 | 140.55392 | 55249 ft | 553 kts | 129° |
| 2026-05-06 09:08 | -36.30804 | 140.63055 | 55235 ft | 553 kts | 129° |
| 2026-05-06 09:09 | -36.35364 | 140.70692 | 55237 ft | 554 kts | 129° |
| 2026-05-06 09:09 | -36.39952 | 140.78365 | 55234 ft | 554 kts | 129° |
| 2026-05-06 09:10 | -36.44562 | 140.86057 | 55230 ft | 555 kts | 129° |
| 2026-05-06 09:10 | -36.49129 | 140.93803 | 55230 ft | 556 kts | 129° |
| 2026-05-06 09:11 | -36.53665 | 141.01591 | 55235 ft | 556 kts | 128° |
| 2026-05-06 09:11 | -36.58202 | 141.09390 | 55225 ft | 557 kts | 128° |
| 2026-05-06 09:12 | -36.62721 | 141.17152 | 55219 ft | 557 kts | 128° |
| 2026-05-06 09:12 | -36.67276 | 141.24969 | 55227 ft | 558 kts | 129° |
| 2026-05-06 09:13 | -36.71844 | 141.32799 | 55218 ft | 558 kts | 129° |
| 2026-05-06 09:13 | -36.74653 | 141.37760 | 55217 ft | 560 kts | 126° |
| 2026-05-06 09:14 | -36.78956 | 141.45836 | 55213 ft | 560 kts | 126° |
| 2026-05-06 09:14 | -36.83263 | 141.53950 | 55215 ft | 561 kts | 126° |
| 2026-05-06 09:15 | -36.87553 | 141.62085 | 55204 ft | 561 kts | 125° |
| 2026-05-06 09:15 | -36.91725 | 141.70348 | 55036 ft | 566 kts | 124° |
| 2026-05-06 09:15 | -36.93835 | 141.74570 | 54280 ft | 580 kts | 124° |
| 2026-05-06 09:16 | -36.95958 | 141.78821 | 53329 ft | 575 kts | 124° |
| 2026-05-06 09:16 | -36.98069 | 141.83052 | 52545 ft | 572 kts | 124° |
| 2026-05-06 09:16 | -37.00168 | 141.87252 | 51707 ft | 569 kts | 124° |
| 2026-05-06 09:16 | -37.02265 | 141.91449 | 50910 ft | 567 kts | 124° |
| 2026-05-06 09:17 | -37.04358 | 141.95632 | 50152 ft | 564 kts | 124° |
| 2026-05-06 09:17 | -37.06436 | 141.99781 | 49432 ft | 562 kts | 124° |
| 2026-05-06 09:17 | -37.08510 | 142.03918 | 48708 ft | 560 kts | 124° |
| 2026-05-06 09:17 | -37.10547 | 142.07975 | 47950 ft | 559 kts | 124° |
| 2026-05-06 09:18 | -37.12616 | 142.12092 | 47209 ft | 557 kts | 124° |
| 2026-05-06 09:18 | -37.14685 | 142.16201 | 46504 ft | 556 kts | 124° |
| 2026-05-06 09:18 | -37.16739 | 142.20276 | 45820 ft | 554 kts | 124° |
| 2026-05-06 09:18 | -37.18807 | 142.24380 | 45082 ft | 559 kts | 124° |
| 2026-05-06 09:19 | -37.20888 | 142.28499 | 44088 ft | 561 kts | 124° |
| 2026-05-06 09:19 | -37.22973 | 142.32634 | 43139 ft | 562 kts | 124° |
| 2026-05-06 09:19 | -37.25059 | 142.36778 | 42245 ft | 562 kts | 124° |
| 2026-05-06 09:19 | -37.27141 | 142.40927 | 41427 ft | 562 kts | 124° |
| 2026-05-06 09:20 | -37.29220 | 142.45085 | 40667 ft | 561 kts | 124° |
| 2026-05-06 09:20 | -37.31279 | 142.49218 | 39961 ft | 560 kts | 124° |
| 2026-05-06 09:20 | -37.33321 | 142.53405 | 39278 ft | 561 kts | 121° |
| 2026-05-06 09:20 | -37.35007 | 142.57855 | 38554 ft | 569 kts | 115° |
| 2026-05-06 09:21 | -37.36575 | 142.62450 | 37727 ft | 579 kts | 114° |
| 2026-05-06 09:21 | -37.38159 | 142.67163 | 36819 ft | 589 kts | 114° |
| 2026-05-06 09:21 | -37.39768 | 142.71926 | 36005 ft | 592 kts | 114° |
| 2026-05-06 09:21 | -37.41392 | 142.76702 | 35237 ft | 595 kts | 113° |
| 2026-05-06 09:22 | -37.43030 | 142.81466 | 34509 ft | 598 kts | 113° |
| 2026-05-06 09:22 | -37.44708 | 142.86291 | 33738 ft | 600 kts | 114° |
| 2026-05-06 09:22 | -37.46386 | 142.91096 | 32934 ft | 600 kts | 114° |
| 2026-05-06 09:22 | -37.48060 | 142.95902 | 32153 ft | 599 kts | 114° |
| 2026-05-06 09:23 | -37.49733 | 143.00697 | 31427 ft | 598 kts | 114° |
| 2026-05-06 09:23 | -37.51401 | 143.05480 | 30717 ft | 595 kts | 114° |
| 2026-05-06 09:23 | -37.53062 | 143.10247 | 29914 ft | 593 kts | 114° |
| 2026-05-06 09:23 | -37.54715 | 143.14988 | 28992 ft | 589 kts | 114° |
| 2026-05-06 09:24 | -37.56343 | 143.19667 | 28115 ft | 584 kts | 114° |
| 2026-05-06 09:24 | -37.57965 | 143.24336 | 27294 ft | 579 kts | 114° |
| 2026-05-06 09:24 | -37.59556 | 143.28908 | 26507 ft | 573 kts | 114° |
| 2026-05-06 09:24 | -37.61147 | 143.33487 | 25733 ft | 567 kts | 114° |
| 2026-05-06 09:25 | -37.62721 | 143.38031 | 24999 ft | 567 kts | 114° |
| 2026-05-06 09:25 | -37.64304 | 143.42610 | 24286 ft | 571 kts | 114° |
| 2026-05-06 09:25 | -37.65892 | 143.47200 | 23567 ft | 570 kts | 114° |
| 2026-05-06 09:25 | -37.67475 | 143.51768 | 22762 ft | 566 kts | 114° |
| 2026-05-06 09:26 | -37.69041 | 143.56296 | 21985 ft | 560 kts | 114° |
| 2026-05-06 09:26 | -37.70588 | 143.60775 | 21233 ft | 554 kts | 114° |
| 2026-05-06 09:26 | -37.72120 | 143.65211 | 20511 ft | 548 kts | 114° |
| 2026-05-06 09:26 | -37.73637 | 143.69600 | 19800 ft | 542 kts | 114° |
| 2026-05-06 09:27 | -37.75132 | 143.73939 | 19143 ft | 536 kts | 114° |
| 2026-05-06 09:27 | -37.76611 | 143.78237 | 18493 ft | 530 kts | 114° |
| 2026-05-06 09:27 | -37.78070 | 143.82483 | 17766 ft | 524 kts | 114° |
| 2026-05-06 09:27 | -37.79518 | 143.86693 | 17050 ft | 518 kts | 114° |
| 2026-05-06 09:28 | -37.80946 | 143.90839 | 16361 ft | 512 kts | 114° |
| 2026-05-06 09:28 | -37.82364 | 143.94949 | 15455 ft | 509 kts | 114° |
| 2026-05-06 09:28 | -37.83768 | 143.99029 | 14572 ft | 503 kts | 114° |
| 2026-05-06 09:28 | -37.84689 | 144.01707 | 14001 ft | 499 kts | 114° |
| 2026-05-06 09:29 | -37.86065 | 144.05701 | 13060 ft | 491 kts | 114° |
| 2026-05-06 09:29 | -37.87419 | 144.09597 | 12157 ft | 482 kts | 114° |
| 2026-05-06 09:29 | -37.88760 | 144.13433 | 11265 ft | 473 kts | 114° |
| 2026-05-06 09:29 | -37.90013 | 144.16996 | 10428 ft | 402 kts | 114° |
| 2026-05-06 09:30 | -37.91069 | 144.19985 | 9691 ft | 345 kts | 114° |
| 2026-05-06 09:30 | -37.91985 | 144.22599 | 9090 ft | 307 kts | 115° |
| 2026-05-06 09:30 | -37.92809 | 144.24995 | 8494 ft | 296 kts | 114° |
| 2026-05-06 09:30 | -37.93640 | 144.27429 | 7945 ft | 303 kts | 115° |
| 2026-05-06 09:31 | -37.94471 | 144.29897 | 7429 ft | 306 kts | 115° |
| 2026-05-06 09:31 | -37.95291 | 144.32374 | 6911 ft | 300 kts | 115° |
| 2026-05-06 09:31 | -37.96066 | 144.34758 | 6389 ft | 287 kts | 115° |
| 2026-05-06 09:31 | -37.96795 | 144.37066 | 5823 ft | 277 kts | 115° |
| 2026-05-06 09:32 | -37.97475 | 144.39327 | 5277 ft | 272 kts | 113° |
| 2026-05-06 09:32 | -37.97663 | 144.41709 | 4552 ft | 279 kts | 82° |
| 2026-05-06 09:32 | -37.96844 | 144.43899 | 3957 ft | 274 kts | 46° |
| 2026-05-06 09:32 | -37.95349 | 144.45129 | 3950 ft | 247 kts | 16° |
| 2026-05-06 09:33 | -37.93695 | 144.45901 | 4068 ft | 259 kts | 13° |
| 2026-05-06 09:33 | -37.91969 | 144.46629 | 4100 ft | 271 kts | 11° |
| 2026-05-06 09:33 | -37.90132 | 144.47356 | 4112 ft | 282 kts | 11° |
| 2026-05-06 09:33 | -37.88219 | 144.48095 | 4101 ft | 279 kts | 11° |
| 2026-05-06 09:34 | -37.86410 | 144.48797 | 3894 ft | 274 kts | 11° |
| 2026-05-06 09:34 | -37.84589 | 144.49405 | 3652 ft | 267 kts | 1° |
| 2026-05-06 09:34 | -37.82841 | 144.49029 | 3338 ft | 249 kts | 324° |
| 2026-05-06 09:34 | -37.81736 | 144.47540 | 2996 ft | 221 kts | 288° |
| 2026-05-06 09:35 | -37.81683 | 144.45682 | 2333 ft | 215 kts | 247° |
| 2026-05-06 09:35 | -37.82665 | 144.44424 | 2289 ft | 204 kts | 205° |
| 2026-05-06 09:35 | -37.84039 | 144.44115 | 2296 ft | 197 kts | 192° |
| 2026-05-06 09:35 | -37.85378 | 144.43939 | 2298 ft | 189 kts | 190° |
| 2026-05-06 09:36 | -37.86663 | 144.43893 | 2389 ft | 190 kts | 180° |
| 2026-05-06 09:36 | -37.87985 | 144.44549 | 2522 ft | 213 kts | 161° |
| 2026-05-06 09:36 | -37.89355 | 144.45350 | 2722 ft | 219 kts | 161° |
| 2026-05-06 09:36 | -37.90741 | 144.46162 | 2855 ft | 222 kts | 162° |
| 2026-05-06 09:37 | -37.92195 | 144.46799 | 2426 ft | 213 kts | 173° |
| 2026-05-06 09:37 | -37.93607 | 144.47088 | 2059 ft | 200 kts | 179° |
| 2026-05-06 09:37 | -37.94941 | 144.47259 | 1704 ft | 183 kts | 181° |
| 2026-05-06 09:37 | -37.96164 | 144.47359 | 1398 ft | 171 kts | 182° |
| 2026-05-06 09:38 | -37.97326 | 144.47544 | 1277 ft | 165 kts | 176° |
| 2026-05-06 09:38 | -37.98415 | 144.47688 | 1059 ft | 150 kts | 191° |
| 2026-05-06 09:38 | -37.99423 | 144.47543 | 700 ft | 141 kts | 195° |
| 2026-05-06 09:38 | -38.00385 | 144.47355 | 546 ft | 140 kts | 198° |
| 2026-05-06 09:39 | -38.01341 | 144.47176 | 319 ft | 138 kts | 195° |
| 2026-05-06 09:39 | -38.02284 | 144.47027 | 176 ft | 134 kts | 195° |
| 2026-05-06 09:39 | -38.03201 | 144.46869 | 39 ft | 125 kts | 195° |
| 2026-05-06 09:39 | -38.03953 | 144.46718 | 31 ft | 97 kts | 191° |
| 2026-05-06 09:40 | -38.04540 | 144.46621 | 31 ft | 78 kts | 186° |
| 2026-05-06 09:40 | -38.04973 | 144.46560 | 31 ft | 58 kts | 187° |
| 2026-05-06 09:40 | -38.05440 | 144.46516 | 32 ft | 9 kts | 114° |
| 2026-05-06 09:41 | -38.05445 | 144.46611 | 31 ft | 0 kts | 91° |
| 2026-05-06 09:41 | -38.05445 | 144.46612 | 31 ft | 1 kts | 90° |
| 2026-05-06 09:41 | -38.05416 | 144.46668 | 31 ft | 15 kts | 47° |
| 2026-05-06 09:41 | -38.05289 | 144.46718 | 32 ft | 24 kts | 8° |
| 2026-05-06 09:42 | -38.05095 | 144.46757 | 32 ft | 32 kts | 9° |
| 2026-05-06 09:42 | -38.04851 | 144.46798 | 32 ft | 39 kts | 8° |
| 2026-05-06 09:42 | -38.04562 | 144.46846 | 32 ft | 45 kts | 7° |
| 2026-05-06 09:42 | -38.04236 | 144.46899 | 31 ft | 50 kts | 8° |
| 2026-05-06 09:43 | -38.03876 | 144.46960 | 31 ft | 55 kts | 8° |
| 2026-05-06 09:43 | -38.03484 | 144.47027 | 32 ft | 57 kts | 9° |
| 2026-05-06 09:43 | -38.03191 | 144.47219 | 31 ft | 42 kts | 53° |
| 2026-05-06 09:43 | -38.02949 | 144.47362 | 31 ft | 29 kts | 33° |
| 2026-05-06 09:44 | -38.02920 | 144.47462 | 31 ft | 8 kts | 45° |
| 2026-05-06 09:44 | -38.02893 | 144.47509 | 31 ft | 7 kts | 107° |
| 2026-05-06 09:44 | -38.02908 | 144.47508 | 31 ft | 0 kts | 245° |